Time;durP1;ratioP1;P1;durP2;ratioP2;P2;SDS_P1;SDS_P2;PMS_P1;PMS_P2;Temp;Humidity;BMP_temperature;BMP_pressure;BME280_temperature;BME280_humidity;BME280_pressure;Samples;Min_cycle;Max_cycle;Signal;HPM_P1;HPM_P2
2021/01/04 00:01:32;;;;;;;1.65;0.57;;;3.30;85.50;;;;;;5076130;28;20115;-71
2021/01/04 00:04:07;;;;;;;2.45;0.60;;;3.30;86.10;;;;;;5058369;28;20025;-71
2021/01/04 00:07:03;;;;;;;3.50;1.00;;;3.30;86.40;;;;;;5076226;28;20016;-71
2021/01/04 00:09:48;;;;;;;2.70;0.80;;;3.20;85.60;;;;;;5076287;28;20025;-71
2021/01/04 00:12:17;;;;;;;4.72;0.55;;;3.30;83.60;;;;;;5076184;28;20032;-71
2021/01/04 00:15:01;;;;;;;2.08;0.60;;;3.40;82.90;;;;;;5076375;28;20032;-71
2021/01/04 00:17:53;;;;;;;4.03;0.70;;;3.60;82.20;;;;;;5076168;28;20025;-71
2021/01/04 00:20:33;;;;;;;1.20;0.50;;;3.70;81.50;;;;;;5058188;28;20033;-71
2021/01/04 00:23:01;;;;;;;4.55;0.75;;;3.90;80.60;;;;;;5076256;28;20025;-71
2021/01/04 00:25:36;;;;;;;6.70;0.75;;;4.00;79.80;;;;;;5058201;28;20098;-71
2021/01/04 00:28:06;;;;;;;2.40;0.52;;;4.10;78.50;;;;;;5075973;28;20048;-71
2021/01/04 00:30:40;;;;;;;1.52;0.77;;;4.30;78.00;;;;;;5076189;28;20029;-71
2021/01/04 00:33:27;;;;;;;2.83;0.60;;;4.30;78.10;;;;;;5078650;28;20024;-71
2021/01/04 00:35:59;;;;;;;4.55;1.33;;;4.30;76.90;;;;;;5079552;28;20316;-71
2021/01/04 00:38:53;;;;;;;2.15;0.60;;;4.30;76.30;;;;;;5061680;28;20032;-71
2021/01/04 00:41:57;;;;;;;4.90;1.40;;;4.40;76.60;;;;;;5079393;28;20021;-71
2021/01/04 00:44:49;;;;;;;3.03;0.75;;;4.40;75.60;;;;;;5061537;28;20162;-71
2021/01/04 00:47:44;;;;;;;1.40;0.50;;;4.40;76.20;;;;;;5075346;28;20039;-71
2021/01/04 00:50:42;;;;;;;2.03;0.50;;;4.30;77.90;;;;;;5064855;28;20037;-71
2021/01/04 00:53:33;;;;;;;1.35;0.57;;;4.10;78.70;;;;;;5079281;28;20060;-71
2021/01/04 00:56:36;;;;;;;3.35;0.57;;;3.90;79.80;;;;;;5079130;28;20023;-71
2021/01/04 00:59:29;;;;;;;1.92;1.00;;;3.70;81.00;;;;;;5078930;28;20324;-71
2021/01/04 01:02:39;;;;;;;1.80;0.28;;;3.60;81.60;;;;;;5061262;28;20028;-71
2021/01/04 01:05:18;;;;;;;1.63;0.50;;;3.40;82.60;;;;;;5078904;28;20031;-71
2021/01/04 01:08:15;;;;;;;2.72;0.65;;;3.20;82.90;;;;;;5079108;28;20351;-71
2021/01/04 01:10:49;;;;;;;1.83;0.57;;;3.20;83.00;;;;;;5062877;28;20040;-71
2021/01/04 01:13:33;;;;;;;2.72;0.70;;;3.30;82.10;;;;;;5078831;28;20321;-71
2021/01/04 01:16:18;;;;;;;1.73;0.60;;;3.40;81.20;;;;;;5078948;28;20029;-71
2021/01/04 01:19:02;;;;;;;1.55;0.70;;;3.50;80.10;;;;;;5078783;28;20032;-71
2021/01/04 01:21:28;;;;;;;3.10;0.60;;;3.70;79.30;;;;;;5078866;28;20082;-71
2021/01/04 01:23:55;;;;;;;2.42;0.60;;;3.70;79.40;;;;;;5060878;28;20025;-71
2021/01/04 01:26:40;;;;;;;2.80;0.85;;;3.70;79.40;;;;;;5078547;28;20086;-71
2021/01/04 01:29:44;;;;;;;2.00;0.45;;;3.70;80.40;;;;;;5078668;28;20037;-71
2021/01/04 01:32:37;;;;;;;4.28;0.70;;;3.60;81.20;;;;;;5078404;28;20033;-71
2021/01/04 01:35:40;;;;;;;2.35;0.60;;;3.50;81.10;;;;;;5078346;28;20025;-71
2021/01/04 01:38:28;;;;;;;2.10;0.43;;;3.40;81.80;;;;;;5075584;28;20129;-71
2021/01/04 01:41:28;;;;;;;1.52;0.55;;;3.30;82.50;;;;;;5078659;28;20036;-71
2021/01/04 01:44:03;;;;;;;2.95;0.60;;;3.20;83.10;;;;;;5066049;28;20040;-71
2021/01/04 01:46:40;;;;;;;1.83;0.60;;;3.00;83.50;;;;;;5078367;28;20119;-71
2021/01/04 01:49:30;;;;;;;1.52;0.45;;;2.90;84.00;;;;;;5077901;28;20040;-71
2021/01/04 01:52:35;;;;;;;6.78;0.90;;;2.90;84.50;;;;;;5060288;28;20043;-71
2021/01/04 01:55:06;;;;;;;6.30;0.77;;;2.80;85.10;;;;;;5060197;28;20029;-71
2021/01/04 01:57:32;;;;;;;3.30;0.60;;;2.70;85.50;;;;;;5078145;28;20040;-71
2021/01/04 02:00:07;;;;;;;2.20;0.40;;;2.70;85.70;;;;;;5077785;28;20021;-71
2021/01/04 02:02:44;;;;;;;2.58;0.65;;;2.60;86.20;;;;;;5078193;28;20089;-71
2021/01/04 02:05:20;;;;;;;3.38;0.57;;;2.60;87.00;;;;;;5077891;28;20025;-71
2021/01/04 02:08:04;;;;;;;4.43;0.85;;;2.50;87.40;;;;;;5060003;28;20408;-71
2021/01/04 02:10:43;;;;;;;1.98;0.43;;;2.50;87.90;;;;;;5077631;28;20020;-70
2021/01/04 02:13:21;;;;;;;2.55;1.00;;;2.50;88.00;;;;;;5059876;28;20355;-71
2021/01/04 02:15:52;;;;;;;2.20;0.50;;;2.50;88.20;;;;;;5077593;28;20044;-71
2021/01/04 02:18:36;;;;;;;3.20;0.60;;;2.50;88.70;;;;;;5077386;28;20029;-71
2021/01/04 02:21:10;;;;;;;4.22;0.60;;;2.40;89.10;;;;;;5077486;28;20046;-71
2021/01/04 02:24:04;;;;;;;2.47;0.52;;;2.40;89.30;;;;;;5059847;28;20329;-71
2021/01/04 02:26:30;;;;;;;4.30;0.70;;;2.40;89.80;;;;;;5059650;28;20035;-71
2021/01/04 02:28:59;;;;;;;1.88;0.47;;;2.40;89.70;;;;;;5077256;28;20111;-71
2021/01/04 02:31:25;;;;;;;2.85;0.50;;;2.40;88.80;;;;;;5077395;28;20059;-71
2021/01/04 02:33:52;;;;;;;2.85;0.60;;;2.50;87.20;;;;;;5077407;28;20053;-71
2021/01/04 02:36:18;;;;;;;1.73;0.40;;;2.60;86.80;;;;;;5059410;28;20028;-71
2021/01/04 02:38:53;;;;;;;5.70;0.60;;;2.60;85.70;;;;;;5059333;28;20111;-71
2021/01/04 02:41:19;;;;;;;2.00;0.60;;;2.70;84.00;;;;;;5077095;28;20062;-71
2021/01/04 02:43:45;;;;;;;3.78;0.65;;;2.80;82.80;;;;;;5059379;28;20025;-71
2021/01/04 02:46:16;;;;;;;4.15;0.60;;;3.00;81.70;;;;;;5076883;28;20347;-71
2021/01/04 02:49:07;;;;;;;3.22;0.80;;;3.20;80.80;;;;;;5077016;28;20357;-71
2021/01/04 02:51:38;;;;;;;1.23;0.47;;;3.40;79.60;;;;;;5066101;28;20039;-71
2021/01/04 02:54:21;;;;;;;1.70;0.52;;;3.60;79.00;;;;;;5077079;28;20146;-71
2021/01/04 02:57:13;;;;;;;3.08;0.73;;;3.70;77.80;;;;;;5077208;28;20036;-71
2021/01/04 02:59:55;;;;;;;3.67;0.60;;;3.90;76.50;;;;;;5076216;28;20455;-71
2021/01/04 03:02:44;;;;;;;4.15;0.60;;;4.00;75.90;;;;;;5076885;28;20044;-71
2021/01/04 03:05:16;;;;;;;2.20;0.60;;;4.10;75.50;;;;;;5076769;28;20021;-71
2021/01/04 03:07:49;;;;;;;3.50;0.60;;;4.10;75.10;;;;;;5077060;28;20099;-71
2021/01/04 03:10:37;;;;;;;2.17;0.60;;;4.10;75.10;;;;;;5076756;28;20371;-71
2021/01/04 03:13:15;;;;;;;1.15;0.60;;;4.20;75.00;;;;;;5076874;28;20028;-71
2021/01/04 03:16:02;;;;;;;2.47;0.60;;;4.20;74.80;;;;;;5076743;28;20028;-71
2021/01/04 03:18:47;;;;;;;0.70;0.45;;;4.20;75.20;;;;;;5076986;28;20100;-71
2021/01/04 03:21:13;;;;;;;1.77;0.40;;;4.10;76.10;;;;;;5077197;28;20397;-71
2021/01/04 03:23:45;;;;;;;3.72;0.65;;;4.00;77.50;;;;;;5076977;28;20462;-71
2021/01/04 03:26:17;;;;;;;4.80;0.38;;;3.90;76.90;;;;;;5076976;28;20286;-71
2021/01/04 03:28:42;;;;;;;1.05;0.55;;;3.90;75.60;;;;;;5076557;28;20036;-71
2021/01/04 03:31:09;;;;;;;3.08;0.77;;;4.00;75.60;;;;;;5076505;28;20324;-71
2021/01/04 03:33:34;;;;;;;2.13;0.80;;;4.00;75.00;;;;;;5076420;28;20032;-71
2021/01/04 03:36:00;;;;;;;2.05;0.57;;;4.10;75.30;;;;;;5076447;28;20317;-71
2021/01/04 03:38:26;;;;;;;1.40;0.65;;;4.10;74.50;;;;;;5076397;28;20029;-71
2021/01/04 03:40:52;;;;;;;1.35;0.50;;;4.10;74.70;;;;;;5076531;28;20021;-71
2021/01/04 03:43:19;;;;;;;3.35;0.70;;;4.10;77.00;;;;;;5076622;28;20036;-71
2021/01/04 03:45:45;;;;;;;1.67;0.50;;;4.00;77.50;;;;;;5076829;28;20069;-71
2021/01/04 03:48:11;;;;;;;3.58;0.77;;;3.90;76.20;;;;;;5058521;28;20406;-71
2021/01/04 03:50:37;;;;;;;2.83;0.52;;;3.80;77.50;;;;;;5076207;28;20045;-71
2021/01/04 03:53:03;;;;;;;2.47;0.70;;;3.70;78.20;;;;;;5076349;28;20036;-71
2021/01/04 03:55:29;;;;;;;1.02;0.50;;;3.60;78.80;;;;;;5058525;28;20029;-71
2021/01/04 03:57:55;;;;;;;2.03;0.40;;;3.50;78.20;;;;;;5076270;28;20466;-71
2021/01/04 04:00:21;;;;;;;5.65;0.80;;;3.50;77.40;;;;;;5076435;28;20304;-71
2021/01/04 04:02:48;;;;;;;3.72;0.65;;;3.60;77.40;;;;;;5076495;28;20044;-71
2021/01/04 04:05:16;;;;;;;2.03;0.60;;;3.70;75.90;;;;;;5076122;28;20024;-71
2021/01/04 04:07:42;;;;;;;2.80;0.90;;;3.80;75.70;;;;;;5060605;28;20029;-71
2021/01/04 04:10:10;;;;;;;2.33;0.80;;;4.00;75.20;;;;;;5079975;28;20112;-71
2021/01/04 04:12:36;;;;;;;1.60;0.60;;;4.10;74.60;;;;;;5079841;28;20111;-71
2021/01/04 04:15:04;;;;;;;3.50;0.95;;;4.10;75.30;;;;;;5062099;28;20028;-71
2021/01/04 04:17:30;;;;;;;3.67;0.60;;;4.00;75.80;;;;;;5079764;28;20036;-71
2021/01/04 04:19:55;;;;;;;2.03;0.52;;;4.00;76.20;;;;;;5079712;28;20029;-71
2021/01/04 04:22:21;;;;;;;3.63;0.63;;;3.90;75.90;;;;;;5079751;28;20376;-71
2021/01/04 04:24:47;;;;;;;0.98;0.40;;;3.80;76.10;;;;;;5061881;28;20082;-71
2021/01/04 04:27:14;;;;;;;4.05;0.80;;;3.80;76.50;;;;;;5079644;28;20324;-71
2021/01/04 04:29:41;;;;;;;3.17;0.52;;;3.80;74.80;;;;;;5079585;28;20020;-71
2021/01/04 04:32:08;;;;;;;1.13;0.30;;;4.00;73.90;;;;;;5079558;28;20029;-71
2021/01/04 04:34:35;;;;;;;2.63;0.32;;;4.10;73.40;;;;;;5079562;28;20554;-71
2021/01/04 04:37:01;;;;;;;3.80;0.60;;;4.30;73.00;;;;;;5061747;28;20075;-71
2021/01/04 04:39:26;;;;;;;2.95;0.47;;;4.40;73.10;;;;;;5079457;28;20347;-71
2021/01/04 04:41:54;;;;;;;2.83;0.60;;;4.40;73.00;;;;;;5079649;28;20024;-71
2021/01/04 04:44:58;;;;;;;1.38;0.50;;;4.40;72.60;;;;;;5079235;28;20018;-71
2021/01/04 04:47:29;;;;;;;2.67;0.70;;;4.40;72.60;;;;;;5079352;28;20032;-71
2021/01/04 04:50:20;;;;;;;2.83;0.60;;;4.40;72.60;;;;;;5079067;28;20053;-71
2021/01/04 04:53:30;;;;;;;2.60;0.52;;;4.40;72.50;;;;;;5079348;28;20376;-71
2021/01/04 04:56:26;;;;;;;1.70;0.50;;;4.30;73.10;;;;;;4997831;28;20426;-71
2021/01/04 04:59:22;;;;;;;6.05;0.55;;;4.30;73.90;;;;;;5078844;28;20036;-71
2021/01/04 05:01:54;;;;;;;2.05;0.63;;;4.20;75.00;;;;;;5079162;28;20103;-71
2021/01/04 05:04:38;;;;;;;0.95;0.47;;;4.10;76.00;;;;;;5078911;28;20031;-71
2021/01/04 05:07:25;;;;;;;2.38;0.60;;;4.00;75.20;;;;;;5061150;28;20028;-71
2021/01/04 05:10:06;;;;;;;2.13;0.60;;;4.00;75.10;;;;;;5078987;28;20032;-71
2021/01/04 05:12:45;;;;;;;6.85;0.70;;;4.00;75.40;;;;;;5078998;28;20048;-71
2021/01/04 05:15:29;;;;;;;1.92;0.50;;;4.00;74.50;;;;;;5078768;28;20024;-71
2021/01/04 05:17:57;;;;;;;1.20;0.40;;;4.00;74.50;;;;;;5079052;28;20028;-71
2021/01/04 05:20:42;;;;;;;4.40;0.60;;;4.20;73.80;;;;;;5060799;28;20028;-71
2021/01/04 05:23:45;;;;;;;1.27;0.73;;;4.20;72.90;;;;;;5078674;28;20317;-71
2021/01/04 05:26:26;;;;;;;1.63;0.60;;;4.20;73.10;;;;;;5078523;28;20025;-71
2021/01/04 05:29:00;;;;;;;1.20;0.60;;;4.20;73.40;;;;;;5078767;28;20111;-71
2021/01/04 05:31:53;;;;;;;3.25;0.80;;;4.20;73.20;;;;;;5078384;28;20421;-71
2021/01/04 05:34:34;;;;;;;3.92;0.60;;;4.20;73.20;;;;;;5078451;28;20033;-71
2021/01/04 05:37:29;;;;;;;2.80;0.70;;;4.20;72.70;;;;;;5078692;28;20086;-71
2021/01/04 05:40:29;;;;;;;1.77;0.50;;;4.20;73.00;;;;;;5078260;28;20051;-71
2021/01/04 05:43:26;;;;;;;1.85;0.43;;;4.30;72.30;;;;;;5078115;28;20029;-71
2021/01/04 05:46:13;;;;;;;1.20;0.82;;;4.30;72.60;;;;;;5078397;28;20328;-71
2021/01/04 05:49:04;;;;;;;1.27;0.40;;;4.20;71.90;;;;;;5078166;28;20056;-71
2021/01/04 05:51:34;;;;;;;3.30;0.45;;;4.20;72.80;;;;;;5068798;28;20039;-71
2021/01/04 05:54:00;;;;;;;1.67;0.50;;;4.10;74.50;;;;;;5077965;28;20335;-71
2021/01/04 05:56:28;;;;;;;1.58;0.40;;;4.00;75.20;;;;;;5077999;28;20108;-71
2021/01/04 05:59:12;;;;;;;1.30;0.40;;;3.90;75.80;;;;;;5078087;28;20025;-71
2021/01/04 06:01:44;;;;;;;5.45;0.55;;;3.80;76.00;;;;;;5077910;28;20404;-71
2021/01/04 06:04:24;;;;;;;1.73;0.73;;;3.60;76.90;;;;;;5078004;28;20020;-71
2021/01/04 06:06:52;;;;;;;3.22;0.93;;;3.50;77.80;;;;;;5060347;28;20355;-71
2021/01/04 06:09:19;;;;;;;3.45;1.10;;;3.40;79.00;;;;;;5077668;28;20028;-71
2021/01/04 06:11:58;;;;;;;3.97;1.40;;;3.30;79.10;;;;;;5077708;28;20052;-71
2021/01/04 06:14:27;;;;;;;3.28;1.35;;;3.20;79.80;;;;;;5077606;28;20025;-71
2021/01/04 06:16:58;;;;;;;3.35;1.10;;;3.10;80.50;;;;;;5077841;28;20047;-71
2021/01/04 06:19:24;;;;;;;7.85;1.45;;;3.00;80.80;;;;;;5077652;28;20111;-71
2021/01/04 06:22:07;;;;;;;4.00;1.20;;;3.00;82.20;;;;;;5077655;28;20075;-71
2021/01/04 06:24:35;;;;;;;5.65;1.40;;;2.80;83.10;;;;;;5077836;28;20333;-71
2021/01/04 06:27:42;;;;;;;5.32;1.52;;;2.70;84.50;;;;;;5077363;28;20024;-71
2021/01/04 06:30:30;;;;;;;3.30;1.00;;;2.60;84.70;;;;;;4995788;28;20041;-71
2021/01/04 06:33:05;;;;;;;1.77;0.70;;;2.70;84.60;;;;;;5072988;28;20259;-71
2021/01/04 06:35:32;;;;;;;3.85;0.70;;;2.70;85.10;;;;;;5077427;28;20349;-71
2021/01/04 06:38:30;;;;;;;5.50;0.98;;;2.70;85.30;;;;;;5077172;28;20020;-71
2021/01/04 06:40:56;;;;;;;3.60;0.80;;;2.70;85.40;;;;;;5077266;28;20020;-71
2021/01/04 06:43:36;;;;;;;5.45;0.82;;;2.80;85.90;;;;;;5059330;28;20021;-71
2021/01/04 06:46:19;;;;;;;1.85;0.60;;;2.80;86.30;;;;;;5077271;28;20121;-71
2021/01/04 06:48:57;;;;;;;3.85;1.05;;;2.70;86.30;;;;;;5076993;28;20123;-71
2021/01/04 06:51:38;;;;;;;1.40;0.40;;;2.70;86.60;;;;;;5077016;28;20032;-71
2021/01/04 06:54:41;;;;;;;1.60;0.45;;;2.80;86.60;;;;;;5077428;28;20032;-71
2021/01/04 06:57:52;;;;;;;2.70;0.50;;;2.90;87.00;;;;;;5077434;28;20119;-71
2021/01/04 07:01:08;;;;;;;5.65;0.85;;;2.90;86.40;;;;;;5077143;28;20025;-71
2021/01/04 07:03:49;;;;;;;4.82;0.65;;;2.90;86.70;;;;;;4995666;28;20062;-71
2021/01/04 07:06:49;;;;;;;2.10;0.43;;;3.00;86.60;;;;;;5077014;28;20039;-71
2021/01/04 07:09:36;;;;;;;2.92;0.52;;;3.00;87.00;;;;;;5076809;28;20024;-71
2021/01/04 07:12:09;;;;;;;2.05;0.47;;;3.00;87.10;;;;;;5077090;28;20108;-71
2021/01/04 07:14:43;;;;;;;5.00;0.75;;;3.10;87.00;;;;;;5076672;28;20068;-71
2021/01/04 07:17:47;;;;;;;1.50;0.60;;;3.10;86.90;;;;;;5076833;28;20298;-71
2021/01/04 07:20:40;;;;;;;3.47;0.52;;;3.20;86.80;;;;;;5076576;28;20409;-71
2021/01/04 07:23:22;;;;;;;1.98;0.75;;;3.20;87.30;;;;;;5076736;28;20025;-71
2021/01/04 07:25:56;;;;;;;3.80;1.23;;;3.30;87.60;;;;;;5076682;28;20082;-71
2021/01/04 07:29:16;;;;;;;2.05;0.95;;;3.40;85.00;;;;;;5076703;28;20024;-71
2021/01/04 07:31:50;;;;;;;1.63;0.73;;;3.40;84.80;;;;;;5044640;28;20444;-71
2021/01/04 07:34:32;;;;;;;2.65;0.95;;;3.50;84.30;;;;;;5076574;28;20020;-71
2021/01/04 07:37:19;;;;;;;1.55;0.80;;;3.50;84.60;;;;;;5076765;28;20028;-71
2021/01/04 07:39:52;;;;;;;3.47;0.77;;;3.60;85.20;;;;;;5076570;28;20025;-71
2021/01/04 07:42:36;;;;;;;2.13;0.88;;;3.70;84.50;;;;;;5080090;28;20370;-71
2021/01/04 07:45:40;;;;;;;5.25;1.10;;;3.70;84.20;;;;;;5080561;28;20012;-71
2021/01/04 07:48:23;;;;;;;3.42;1.00;;;3.70;84.90;;;;;;5080875;28;20316;-71
2021/01/04 07:51:13;;;;;;;1.20;0.70;;;3.70;85.00;;;;;;5080701;28;20037;-71
2021/01/04 07:53:48;;;;;;;2.10;0.77;;;3.70;85.60;;;;;;5080610;28;20078;-71
2021/01/04 07:56:32;;;;;;;1.98;0.80;;;3.70;86.50;;;;;;5080237;28;20086;-71
2021/01/04 07:59:35;;;;;;;2.20;0.70;;;3.70;83.00;;;;;;5080186;28;20058;-71
2021/01/04 08:02:26;;;;;;;2.35;0.80;;;3.60;82.30;;;;;;5080203;28;20020;-71
2021/01/04 08:05:23;;;;;;;3.25;1.08;;;3.60;81.50;;;;;;5080089;28;20436;-71
2021/01/04 08:07:49;;;;;;;1.95;0.80;;;3.70;80.10;;;;;;5074242;28;20037;-71
2021/01/04 08:10:43;;;;;;;1.42;0.80;;;3.70;79.80;;;;;;5079978;28;20099;-71
2021/01/04 08:13:53;;;;;;;3.50;0.70;;;3.70;77.40;;;;;;5080160;28;20028;-71
2021/01/04 08:16:27;;;;;;;1.80;1.10;;;3.80;76.40;;;;;;5080159;28;20111;-71
2021/01/04 08:18:58;;;;;;;3.53;1.67;;;3.90;76.00;;;;;;5080144;28;20032;-71
2021/01/04 08:21:33;;;;;;;1.40;0.82;;;3.80;76.60;;;;;;5079839;28;20058;-71
2021/01/04 08:24:20;;;;;;;1.73;0.80;;;3.80;76.10;;;;;;5080039;28;20036;-71
2021/01/04 08:27:25;;;;;;;2.60;0.70;;;3.90;79.00;;;;;;5079686;28;20029;-71
2021/01/04 08:30:00;;;;;;;5.10;1.17;;;3.90;80.40;;;;;;5079733;28;20034;-71
2021/01/04 08:33:19;;;;;;;3.42;1.33;;;3.90;81.40;;;;;;5079584;28;20031;-71
2021/01/04 08:35:46;;;;;;;2.78;0.80;;;4.00;83.60;;;;;;4998255;28;20085;-71
2021/01/04 08:38:15;;;;;;;2.45;1.02;;;4.10;84.00;;;;;;4998319;28;20052;-71
2021/01/04 08:40:55;;;;;;;4.25;0.60;;;4.20;84.40;;;;;;5038173;28;20070;-71
2021/01/04 08:43:43;;;;;;;3.85;1.00;;;4.30;84.30;;;;;;5079386;28;20074;-71
2021/01/04 08:46:23;;;;;;;2.40;0.75;;;4.40;83.60;;;;;;5079523;28;20024;-71
2021/01/04 08:48:51;;;;;;;3.50;0.75;;;4.50;84.00;;;;;;5079474;28;20483;-71
2021/01/04 08:51:33;;;;;;;1.90;0.57;;;4.60;81.40;;;;;;5079467;28;20379;-71
2021/01/04 08:54:03;;;;;;;1.42;0.57;;;4.70;82.10;;;;;;5078532;28;20056;-71
2021/01/04 08:56:38;;;;;;;1.80;0.70;;;4.70;83.00;;;;;;5061424;28;20033;-71
2021/01/04 08:59:22;;;;;;;3.10;0.77;;;4.80;84.90;;;;;;5061313;28;20115;-71
2021/01/04 09:01:55;;;;;;;4.10;0.70;;;4.80;83.00;;;;;;5079204;28;20024;-71
2021/01/04 09:04:35;;;;;;;1.77;0.52;;;4.80;80.80;;;;;;5079113;28;20048;-71
2021/01/04 09:07:18;;;;;;;5.80;0.88;;;4.90;82.10;;;;;;5078905;28;20107;-71
2021/01/04 09:09:56;;;;;;;1.08;0.50;;;4.90;82.50;;;;;;5079015;28;20017;-71
2021/01/04 09:12:29;;;;;;;5.38;1.55;;;4.90;81.00;;;;;;5079182;28;20037;-71
2021/01/04 09:14:59;;;;;;;2.15;0.80;;;5.00;82.60;;;;;;5078847;28;20026;-71
2021/01/04 09:17:53;;;;;;;4.47;1.23;;;4.90;80.40;;;;;;5061043;28;20459;-71
2021/01/04 09:20:19;;;;;;;3.15;0.95;;;4.90;78.50;;;;;;5078742;28;20024;-71
2021/01/04 09:22:48;;;;;;;2.83;1.05;;;4.90;77.70;;;;;;5078675;28;20025;-71
2021/01/04 09:25:24;;;;;;;2.20;0.80;;;4.70;76.80;;;;;;5078834;28;20025;-71
2021/01/04 09:27:52;;;;;;;2.30;0.80;;;4.70;77.60;;;;;;5078855;28;20371;-71
2021/01/04 09:30:27;;;;;;;1.65;0.70;;;4.60;77.80;;;;;;5078497;28;20036;-71
2021/01/04 09:33:06;;;;;;;2.55;0.70;;;4.60;78.10;;;;;;5078503;28;20024;-71
2021/01/04 09:35:31;;;;;;;1.33;0.70;;;4.60;77.90;;;;;;5078442;28;20024;-71
2021/01/04 09:38:25;;;;;;;4.68;1.20;;;4.60;79.20;;;;;;5078465;28;20082;-71
2021/01/04 09:40:57;;;;;;;1.60;0.60;;;4.60;77.00;;;;;;5070545;28;20064;-71
2021/01/04 09:43:26;;;;;;;1.65;0.75;;;4.70;76.60;;;;;;5078190;28;20415;-71
2021/01/04 09:45:54;;;;;;;1.75;0.80;;;4.70;75.90;;;;;;5078221;28;20035;-71
2021/01/04 09:48:38;;;;;;;1.67;1.10;;;4.70;75.70;;;;;;5078004;28;20020;-72
2021/01/04 09:51:07;;;;;;;2.53;0.90;;;4.70;75.80;;;;;;5078288;28;20017;-71
2021/01/04 09:53:40;;;;;;;2.95;0.98;;;4.70;74.70;;;;;;5077902;28;20031;-71
2021/01/04 09:56:14;;;;;;;1.98;0.85;;;4.70;72.80;;;;;;5077999;28;20031;-71
2021/01/04 09:58:40;;;;;;;2.03;0.90;;;4.50;74.80;;;;;;5078235;28;20070;-71
2021/01/04 10:01:12;;;;;;;1.08;0.70;;;4.50;73.50;;;;;;5077846;28;20016;-71
2021/01/04 10:03:38;;;;;;;2.05;0.60;;;4.50;73.40;;;;;;5077890;28;20025;-71
2021/01/04 10:06:09;;;;;;;2.60;0.63;;;4.60;72.50;;;;;;5077022;28;20032;-71
2021/01/04 10:08:37;;;;;;;1.40;0.65;;;4.60;73.80;;;;;;5077772;28;20092;-71
2021/01/04 10:11:15;;;;;;;0.88;0.60;;;4.70;73.60;;;;;;5088927;28;20027;-71
2021/01/04 10:13:40;;;;;;;4.30;1.13;;;4.70;73.40;;;;;;5098153;28;20028;-71
2021/01/04 10:16:13;;;;;;;2.33;1.05;;;4.70;78.40;;;;;;5097838;28;20073;-71
2021/01/04 10:18:44;;;;;;;3.42;1.30;;;4.80;80.00;;;;;;5097744;28;20028;-71
2021/01/04 10:21:28;;;;;;;5.78;1.60;;;4.80;80.20;;;;;;5098102;28;20031;-71
2021/01/04 10:24:25;;;;;;;2.42;1.08;;;4.90;80.70;;;;;;5097576;28;20036;-71
2021/01/04 10:27:03;;;;;;;3.00;1.48;;;4.90;82.40;;;;;;5074292;28;20349;-71
2021/01/04 10:29:31;;;;;;;2.83;1.42;;;5.00;82.70;;;;;;5074123;28;20028;-72
2021/01/04 10:32:18;;;;;;;3.13;1.23;;;5.10;81.30;;;;;;5074039;28;20110;-72
2021/01/04 10:34:47;;;;;;;1.67;1.10;;;5.10;80.40;;;;;;5072823;28;20087;-72
2021/01/04 10:37:28;;;;;;;3.85;2.28;;;5.20;79.40;;;;;;5074082;28;20124;-72
2021/01/04 10:39:59;;;;;;;6.18;2.15;;;5.30;80.10;;;;;;5073909;28;20020;-72
2021/01/04 10:42:25;;;;;;;3.33;1.60;;;5.30;81.10;;;;;;5073799;28;20021;-72
2021/01/04 10:45:10;;;;;;;4.63;2.50;;;5.30;82.00;;;;;;5073623;28;20074;-72
2021/01/04 10:47:38;;;;;;;4.00;2.08;;;5.30;80.40;;;;;;5072651;28;20025;-72
2021/01/04 10:50:17;;;;;;;2.28;1.52;;;5.30;80.90;;;;;;5073644;28;20317;-72
2021/01/04 10:52:53;;;;;;;4.88;1.30;;;5.30;80.20;;;;;;5073621;28;20090;-72
2021/01/04 10:55:21;;;;;;;;;;;5.30;77.30;;;;;;5074228;28;20025;-72
2021/01/04 10:57:51;;;;;;;1.48;1.10;;;5.30;81.40;;;;;;5073769;28;19912;-72
2021/01/04 11:00:22;;;;;;;3.28;1.70;;;5.30;79.00;;;;;;5073717;28;20298;-72
2021/01/04 11:02:50;;;;;;;3.17;1.67;;;5.40;76.30;;;;;;5073468;28;20368;-72
2021/01/04 11:05:32;;;;;;;8.52;2.55;;;5.30;75.80;;;;;;5073222;28;20032;-72
2021/01/04 11:08:11;;;;;;;3.17;1.65;;;5.30;76.00;;;;;;5073454;28;20054;-72
2021/01/04 11:10:36;;;;;;;3.05;1.58;;;5.30;76.30;;;;;;5073185;28;20405;-72
2021/01/04 11:13:02;;;;;;;4.47;1.50;;;5.30;77.50;;;;;;5073125;28;20021;-72
2021/01/04 11:15:31;;;;;;;2.63;1.63;;;5.30;77.50;;;;;;5073324;28;20025;-72
2021/01/04 11:18:17;;;;;;;3.33;1.75;;;5.30;79.10;;;;;;5073039;28;20024;-72
2021/01/04 11:20:43;;;;;;;5.75;2.38;;;5.30;79.50;;;;;;5073069;28;20048;-72
2021/01/04 11:23:14;;;;;;;5.25;1.65;;;5.30;80.80;;;;;;5073008;28;20029;-72
2021/01/04 11:25:47;;;;;;;2.80;1.00;;;5.30;80.20;;;;;;5072589;28;20048;-72
2021/01/04 11:28:14;;;;;;;2.20;0.95;;;5.20;77.30;;;;;;5072861;28;20017;-72
2021/01/04 11:30:40;;;;;;;1.92;1.05;;;5.20;75.70;;;;;;5073325;28;20060;-72
2021/01/04 11:33:06;;;;;;;2.60;1.20;;;5.10;75.50;;;;;;5072738;28;20048;-72
2021/01/04 11:35:32;;;;;;;2.53;1.00;;;5.10;76.40;;;;;;5072578;28;20024;-72
2021/01/04 11:37:59;;;;;;;3.92;2.60;;;5.20;77.50;;;;;;5061487;28;20025;-72
2021/01/04 11:40:28;;;;;;;1.80;0.85;;;5.20;76.60;;;;;;5059709;28;20039;-72
2021/01/04 11:42:53;;;;;;;2.35;0.90;;;5.30;76.50;;;;;;5059336;28;20421;-72
2021/01/04 11:45:21;;;;;;;1.52;0.90;;;5.40;76.30;;;;;;5059231;28;20036;-72
2021/01/04 11:47:47;;;;;;;5.07;1.15;;;5.40;75.40;;;;;;5059351;28;20099;-72
2021/01/04 11:50:16;;;;;;;2.58;1.00;;;5.40;76.10;;;;;;5058152;28;20025;-72
2021/01/04 11:52:41;;;;;;;2.50;1.00;;;5.40;77.60;;;;;;5059068;28;20096;-72
2021/01/04 11:55:12;;;;;;;2.22;1.00;;;5.40;76.00;;;;;;5059209;28;20136;-72
2021/01/04 11:57:38;;;;;;;1.42;0.80;;;5.30;75.90;;;;;;5059351;28;20356;-72
2021/01/04 12:00:08;;;;;;;2.30;0.70;;;5.20;77.40;;;;;;5057954;28;20033;-72
2021/01/04 12:02:34;;;;;;;1.70;0.82;;;5.20;76.10;;;;;;5059002;28;20104;-72
2021/01/04 12:05:00;;;;;;;1.85;0.80;;;5.20;76.80;;;;;;5058760;28;20500;-72
2021/01/04 12:07:25;;;;;;;3.45;1.08;;;5.20;76.50;;;;;;5059200;28;20028;-72
2021/01/04 12:09:51;;;;;;;2.72;0.90;;;5.20;75.40;;;;;;5058851;28;20029;-72
2021/01/04 12:12:17;;;;;;;1.10;0.60;;;5.40;75.20;;;;;;5057795;28;20340;-72
2021/01/04 12:14:43;;;;;;;1.90;0.70;;;5.50;75.20;;;;;;5058700;28;20025;-72
2021/01/04 12:17:10;;;;;;;1.63;1.30;;;5.60;76.40;;;;;;5058830;28;20017;-72
2021/01/04 12:19:35;;;;;;;3.58;1.15;;;5.70;78.30;;;;;;5058647;28;20036;-72
2021/01/04 12:22:06;;;;;;;3.65;1.13;;;5.90;76.80;;;;;;5057537;28;20025;-72
2021/01/04 12:24:37;;;;;;;2.45;1.10;;;5.90;77.00;;;;;;5058326;28;20029;-72
2021/01/04 12:27:07;;;;;;;4.65;1.10;;;6.00;78.50;;;;;;5058589;28;20021;-72
2021/01/04 12:29:33;;;;;;;2.13;0.70;;;6.10;78.00;;;;;;5058581;28;20049;-72
2021/01/04 12:32:00;;;;;;;2.50;0.93;;;6.10;75.30;;;;;;5057410;28;20021;-72
2021/01/04 12:34:26;;;;;;;2.50;1.02;;;6.10;75.20;;;;;;5058317;28;20481;-72
2021/01/04 12:36:52;;;;;;;2.25;1.05;;;6.20;77.70;;;;;;5058362;28;20211;-72
2021/01/04 12:39:17;;;;;;;2.15;1.00;;;6.20;77.30;;;;;;5057235;28;20025;-72
2021/01/04 12:41:43;;;;;;;3.65;1.27;;;6.30;77.70;;;;;;5058265;28;20120;-72
2021/01/04 12:44:11;;;;;;;3.80;1.50;;;6.40;79.90;;;;;;5058290;28;20090;-72
2021/01/04 12:46:45;;;;;;;3.85;1.10;;;6.40;77.10;;;;;;5058127;28;20093;-72
2021/01/04 12:49:12;;;;;;;2.72;1.70;;;6.40;77.60;;;;;;5056012;28;20082;-72
2021/01/04 12:51:38;;;;;;;8.98;1.58;;;6.50;77.80;;;;;;5057063;28;20021;-72
2021/01/04 12:54:04;;;;;;;2.33;0.80;;;6.40;76.70;;;;;;5058223;28;20321;-72
2021/01/04 12:56:30;;;;;;;1.52;0.88;;;6.40;75.60;;;;;;5057000;28;20040;-72
2021/01/04 12:58:56;;;;;;;2.85;0.95;;;6.40;73.70;;;;;;5057898;28;20025;-72
2021/01/04 13:01:22;;;;;;;2.97;1.45;;;6.30;74.50;;;;;;5058119;28;20028;-72
2021/01/04 13:03:47;;;;;;;1.92;1.08;;;6.30;74.80;;;;;;5056777;28;20029;-72
2021/01/04 13:06:21;;;;;;;3.22;1.30;;;6.30;74.00;;;;;;5057932;28;20037;-72
2021/01/04 13:08:47;;;;;;;3.30;1.30;;;6.30;74.00;;;;;;5056624;28;20108;-72
2021/01/04 13:11:13;;;;;;;1.95;1.20;;;6.30;70.70;;;;;;5057780;28;20094;-72
2021/01/04 13:13:39;;;;;;;3.92;1.35;;;6.20;72.20;;;;;;5057591;28;20408;-72
2021/01/04 13:16:05;;;;;;;3.15;1.02;;;6.20;72.30;;;;;;5057562;28;20024;-72
2021/01/04 13:18:30;;;;;;;2.05;0.85;;;6.10;72.10;;;;;;5056613;28;20044;-72
2021/01/04 13:20:56;;;;;;;2.63;0.85;;;6.00;70.70;;;;;;5057770;28;20021;-72
2021/01/04 13:23:21;;;;;;;1.85;0.93;;;5.90;71.30;;;;;;5056374;28;20478;-72
2021/01/04 13:25:47;;;;;;;1.40;0.88;;;5.90;72.80;;;;;;5057230;28;20041;-72
2021/01/04 13:28:12;;;;;;;2.40;0.93;;;5.90;74.50;;;;;;5057341;28;20025;-72
2021/01/04 13:30:38;;;;;;;2.65;1.02;;;5.80;74.80;;;;;;5057349;28;20072;-72
2021/01/04 13:33:04;;;;;;;1.42;0.52;;;5.80;74.20;;;;;;5057496;28;20082;-72
2021/01/04 13:35:29;;;;;;;1.15;0.70;;;5.80;75.10;;;;;;5057284;28;20106;-72
2021/01/04 13:37:55;;;;;;;5.18;1.20;;;5.80;75.40;;;;;;5057220;28;20025;-72
2021/01/04 13:40:21;;;;;;;4.25;1.15;;;5.80;74.30;;;;;;5057168;28;20416;-72
2021/01/04 13:42:47;;;;;;;2.67;0.80;;;5.80;75.80;;;;;;5057362;28;20033;-72
2021/01/04 13:45:13;;;;;;;2.83;1.20;;;5.80;75.40;;;;;;5057261;28;20322;-72
2021/01/04 13:47:39;;;;;;;4.13;1.13;;;5.80;75.80;;;;;;5057009;28;20036;-72